Time;durP1;ratioP1;P1;durP2;ratioP2;P2;SDS_P1;SDS_P2;PMS_P1;PMS_P2;Temp;Humidity;BMP_temperature;BMP_pressure;BME280_temperature;BME280_humidity;BME280_pressure;Samples;Min_cycle;Max_cycle;Signal;HPM_P1;HPM_P2
2022/07/21 00:02:14;;;;;;;5.78;5.18;;;22.60;97.30;;;;;;5105373;28;20076;-34
2022/07/21 00:04:40;;;;;;;6.85;5.10;;;22.60;97.10;;;;;;5105181;28;20058;-34
2022/07/21 00:07:05;;;;;;;6.07;5.57;;;22.60;97.20;;;;;;5106393;28;20183;-34
2022/07/21 00:09:31;;;;;;;5.88;5.38;;;22.60;97.40;;;;;;5104701;28;20448;-35
2022/07/21 00:11:56;;;;;;;5.78;5.15;;;22.50;97.70;;;;;;5105760;28;20035;-34
2022/07/21 00:14:22;;;;;;;6.45;5.85;;;22.50;97.90;;;;;;5105478;28;20024;-36
2022/07/21 00:16:47;;;;;;;5.95;5.45;;;22.40;98.10;;;;;;5104539;28;20027;-34
2022/07/21 00:19:13;;;;;;;5.97;5.45;;;22.50;98.40;;;;;;5104157;28;20020;-39
2022/07/21 00:21:39;;;;;;;5.95;5.45;;;22.50;98.50;;;;;;5105492;28;20141;-35
2022/07/21 00:24:05;;;;;;;6.53;5.93;;;22.50;98.50;;;;;;5104999;28;20046;-35
2022/07/21 00:26:31;;;;;;;6.07;5.47;;;22.50;98.70;;;;;;5103765;28;20044;-35
2022/07/21 00:28:56;;;;;;;6.22;5.43;;;22.50;98.80;;;;;;5105912;28;20019;-35
2022/07/21 00:31:22;;;;;;;6.43;5.93;;;22.40;99.00;;;;;;5104351;28;20027;-35
2022/07/21 00:33:50;;;;;;;6.20;5.70;;;22.40;99.30;;;;;;5105566;28;20028;-35
2022/07/21 00:36:17;;;;;;;6.85;5.65;;;22.40;99.40;;;;;;5104414;28;20027;-35
2022/07/21 00:38:43;;;;;;;6.10;5.60;;;22.40;99.50;;;;;;5105034;28;20031;-39
2022/07/21 00:41:08;;;;;;;6.15;5.57;;;22.40;99.60;;;;;;5104807;28;20036;-35
2022/07/21 00:43:34;;;;;;;6.47;5.88;;;22.40;99.70;;;;;;5104473;28;20032;-35
2022/07/21 00:45:59;;;;;;;5.97;5.38;;;22.30;99.90;;;;;;5105108;28;20032;-35
2022/07/21 00:48:25;;;;;;;5.97;5.47;;;22.30;99.90;;;;;;5105363;28;20039;-35
2022/07/21 00:50:50;;;;;;;6.38;5.80;;;22.30;99.90;;;;;;5104521;28;20023;-35
2022/07/21 00:53:16;;;;;;;6.20;5.68;;;22.30;99.90;;;;;;5105093;28;20471;-34
2022/07/21 00:55:46;;;;;;;7.68;6.90;;;22.30;99.90;;;;;;5105203;28;20125;-35
2022/07/21 00:58:12;;;;;;;7.97;7.18;;;22.30;99.90;;;;;;5104320;28;20051;-35
2022/07/21 01:00:38;;;;;;;7.55;6.85;;;22.40;99.90;;;;;;5104877;28;20118;-36
2022/07/21 01:03:04;;;;;;;7.78;7.07;;;22.40;99.90;;;;;;5104836;28;20023;-35
2022/07/21 01:05:29;;;;;;;7.75;7.10;;;22.40;99.90;;;;;;5103573;28;20016;-35
2022/07/21 01:07:55;;;;;;;7.32;6.63;;;22.40;99.90;;;;;;5104737;28;20368;-34
2022/07/21 01:10:24;;;;;;;7.75;7.05;;;22.40;99.90;;;;;;5105112;28;20030;-35
2022/07/21 01:12:50;;;;;;;8.27;7.47;;;22.40;99.90;;;;;;5104304;28;20073;-35
2022/07/21 01:15:18;;;;;;;8.32;7.53;;;22.40;99.90;;;;;;5104741;28;20714;-36
2022/07/21 01:17:44;;;;;;;7.18;6.55;;;22.40;99.90;;;;;;5104616;28;20055;-36
2022/07/21 01:20:13;;;;;;;7.65;6.82;;;22.30;99.90;;;;;;5104241;28;20084;-35
2022/07/21 01:22:40;;;;;;;6.63;6.03;;;22.30;99.90;;;;;;5104334;28;20044;-36
2022/07/21 01:25:07;;;;;;;7.78;7.07;;;22.30;99.90;;;;;;5104601;28;20044;-35
2022/07/21 01:27:32;;;;;;;8.05;7.25;;;22.30;99.90;;;;;;5103445;28;20027;-35
2022/07/21 01:29:59;;;;;;;8.20;7.50;;;22.20;99.90;;;;;;5104668;28;20028;-35
2022/07/21 01:32:25;;;;;;;7.60;6.90;;;22.10;99.90;;;;;;5108024;28;20073;-34
2022/07/21 01:34:50;;;;;;;7.22;6.60;;;22.10;99.90;;;;;;5109549;28;20428;-35
2022/07/21 01:37:26;;;;;;;7.60;6.68;;;22.10;99.90;;;;;;5108548;28;20054;-35
2022/07/21 01:42:36;;;;;;;8.25;7.32;;;22.00;99.90;;;;;;5108239;28;20117;-35
2022/07/21 01:45:03;;;;;;;7.07;6.38;;;22.00;99.90;;;;;;5108762;28;20061;-36
2022/07/21 01:47:29;;;;;;;7.05;6.45;;;22.00;99.90;;;;;;5106991;28;20497;-35
2022/07/21 01:49:54;;;;;;;6.43;5.82;;;22.00;99.90;;;;;;5108399;28;20020;-37
2022/07/21 01:52:20;;;;;;;6.72;6.13;;;21.90;99.90;;;;;;5108311;28;20034;-35
2022/07/21 01:54:45;;;;;;;8.55;7.65;;;21.80;99.90;;;;;;5107462;28;20019;-36
2022/07/21 01:57:11;;;;;;;7.07;6.32;;;21.80;99.90;;;;;;5108608;28;20027;-36
2022/07/21 01:59:36;;;;;;;7.40;6.70;;;21.70;99.90;;;;;;5107962;28;20019;-35
2022/07/21 02:02:02;;;;;;;8.65;7.85;;;21.70;99.90;;;;;;5107615;28;20032;-35
2022/07/21 02:04:28;;;;;;;7.90;7.20;;;21.80;99.90;;;;;;5107629;28;20116;-35
2022/07/21 02:06:54;;;;;;;8.27;7.47;;;21.80;99.90;;;;;;5108834;28;20110;-35
2022/07/21 02:09:19;;;;;;;8.43;7.53;;;21.80;99.90;;;;;;5107599;28;20134;-36
2022/07/21 02:11:45;;;;;;;8.00;7.18;;;21.80;99.90;;;;;;5108046;28;20055;-35
2022/07/21 02:14:10;;;;;;;8.18;7.47;;;21.70;99.90;;;;;;5107703;28;20023;-34
2022/07/21 02:16:36;;;;;;;8.65;7.85;;;21.70;99.90;;;;;;5106922;28;20031;-34
2022/07/21 02:19:02;;;;;;;9.30;8.45;;;21.70;99.90;;;;;;5107460;28;20016;-34
2022/07/21 02:21:28;;;;;;;9.57;8.68;;;21.70;99.90;;;;;;5107624;28;20047;-34
2022/07/21 02:23:54;;;;;;;9.50;8.60;;;21.60;99.90;;;;;;5107244;28;20372;-34
2022/07/21 02:26:19;;;;;;;10.05;8.95;;;21.70;99.90;;;;;;5107470;28;20084;-33
2022/07/21 02:28:45;;;;;;;10.65;9.65;;;21.60;99.90;;;;;;5107126;28;20115;-34
2022/07/21 02:31:10;;;;;;;9.48;8.57;;;21.60;99.90;;;;;;5107658;28;20039;-34
2022/07/21 02:33:36;;;;;;;10.07;9.05;;;21.60;99.90;;;;;;5106856;28;20031;-34
2022/07/21 02:36:02;;;;;;;9.13;8.23;;;21.60;99.90;;;;;;5106536;28;20061;-34
2022/07/21 02:38:27;;;;;;;10.52;9.30;;;21.60;99.90;;;;;;5106883;28;20635;-34
2022/07/21 02:40:53;;;;;;;9.00;8.15;;;21.60;99.90;;;;;;5107422;28;20040;-35
2022/07/21 02:43:19;;;;;;;8.52;7.72;;;21.60;99.90;;;;;;5105296;28;20016;-34
2022/07/21 02:45:44;;;;;;;8.27;7.45;;;21.60;99.90;;;;;;5107217;28;20024;-34
2022/07/21 02:48:12;;;;;;;8.00;7.25;;;21.50;99.90;;;;;;5107254;28;20380;-34
2022/07/21 02:50:41;;;;;;;8.57;7.72;;;21.40;99.90;;;;;;5106137;28;20452;-34
2022/07/21 02:53:15;;;;;;;8.13;7.32;;;21.40;99.90;;;;;;5107148;28;20023;-35
2022/07/21 02:55:40;;;;;;;9.25;8.35;;;21.40;99.90;;;;;;5106941;28;20027;-34
2022/07/21 02:58:08;;;;;;;10.27;9.38;;;21.40;99.90;;;;;;5106113;28;20066;-34
2022/07/21 03:00:36;;;;;;;9.25;8.38;;;21.50;99.90;;;;;;5106214;28;20042;-34
2022/07/21 03:03:03;;;;;;;10.68;9.35;;;21.50;99.90;;;;;;5107033;28;20027;-34
2022/07/21 03:05:29;;;;;;;10.07;9.15;;;21.50;99.90;;;;;;5105390;28;20031;-34
2022/07/21 03:07:55;;;;;;;10.93;9.90;;;21.50;99.90;;;;;;5107255;28;20038;-35
2022/07/21 03:10:20;;;;;;;10.30;9.20;;;21.50;99.90;;;;;;5106639;28;20483;-35
2022/07/21 03:12:46;;;;;;;12.38;10.00;;;21.50;99.90;;;;;;5106560;28;20054;-35
2022/07/21 03:15:11;;;;;;;10.57;9.57;;;21.60;99.90;;;;;;5106539;28;20016;-34
2022/07/21 03:17:37;;;;;;;9.82;8.93;;;21.60;99.90;;;;;;5106700;28;20015;-35
2022/07/21 03:20:03;;;;;;;9.70;8.80;;;21.50;99.90;;;;;;5105717;28;20581;-34
2022/07/21 03:22:29;;;;;;;9.93;8.93;;;21.50;99.90;;;;;;5105879;28;20031;-35
2022/07/21 03:24:54;;;;;;;9.65;8.57;;;21.50;99.90;;;;;;5106869;28;20051;-34
2022/07/21 03:27:20;;;;;;;9.57;8.52;;;21.50;99.90;;;;;;5105554;28;20067;-34
2022/07/21 03:29:45;;;;;;;9.75;8.85;;;21.50;99.90;;;;;;5106707;28;20041;-34
2022/07/21 03:32:11;;;;;;;10.23;9.23;;;21.50;99.90;;;;;;5105662;28;20034;-36
2022/07/21 03:34:36;;;;;;;10.70;9.60;;;21.50;99.90;;;;;;5106108;28;20020;-35
2022/07/21 03:37:03;;;;;;;9.90;8.88;;;21.50;99.90;;;;;;5106192;28;20034;-35
2022/07/21 03:39:28;;;;;;;10.45;9.45;;;21.40;99.90;;;;;;5104984;28;20051;-36
2022/07/21 03:41:54;;;;;;;9.63;8.73;;;21.40;99.90;;;;;;5106334;28;20119;-35
2022/07/21 03:44:19;;;;;;;10.88;9.73;;;21.40;99.90;;;;;;5105900;28;20162;-37
2022/07/21 03:46:45;;;;;;;9.77;8.85;;;21.40;99.90;;;;;;5104940;28;20034;-35
2022/07/21 03:49:10;;;;;;;11.25;10.15;;;21.40;99.90;;;;;;5106757;28;20015;-36
2022/07/21 03:51:36;;;;;;;9.60;8.75;;;21.40;99.90;;;;;;5105626;28;20027;-34
2022/07/21 03:54:02;;;;;;;10.93;9.00;;;21.30;99.90;;;;;;5104038;28;20469;-36
2022/07/21 03:56:28;;;;;;;9.68;8.77;;;21.30;99.90;;;;;;5097682;28;20024;-35
2022/07/21 03:58:53;;;;;;;10.63;9.65;;;21.30;99.90;;;;;;5105991;28;20396;-36
2022/07/21 04:01:19;;;;;;;9.40;8.50;;;21.30;99.90;;;;;;5105262;28;20320;-35
2022/07/21 04:03:44;;;;;;;10.23;9.23;;;21.20;99.90;;;;;;5105362;28;20047;-35
2022/07/21 04:06:10;;;;;;;11.35;10.23;;;21.30;99.90;;;;;;5106225;28;20042;-35
2022/07/21 04:08:37;;;;;;;12.80;11.55;;;21.20;99.90;;;;;;5104615;28;20132;-35
2022/07/21 04:11:03;;;;;;;12.30;10.73;;;21.20;99.90;;;;;;5105640;28;20043;-34
2022/07/21 04:13:28;;;;;;;10.77;9.75;;;21.20;99.90;;;;;;5105021;28;20414;-34
2022/07/21 04:15:54;;;;;;;9.80;8.85;;;21.20;99.90;;;;;;5105393;28;20031;-35
2022/07/21 04:18:19;;;;;;;9.15;8.32;;;21.20;99.90;;;;;;5105102;28;20031;-35
2022/07/21 04:20:45;;;;;;;10.18;9.20;;;21.20;99.90;;;;;;5105448;28;20028;-35
2022/07/21 04:23:10;;;;;;;11.57;10.40;;;21.10;99.90;;;;;;5104434;28;20084;-36
2022/07/21 04:25:38;;;;;;;13.38;11.98;;;21.10;99.90;;;;;;5105483;28;20608;-35
2022/07/21 04:28:03;;;;;;;11.60;10.07;;;21.10;99.90;;;;;;5105551;28;20103;-35
2022/07/21 04:30:29;;;;;;;11.07;9.98;;;21.10;99.90;;;;;;5105016;28;20168;-35
2022/07/21 04:32:55;;;;;;;12.20;10.93;;;21.10;99.90;;;;;;5105288;28;20042;-35
2022/07/21 04:35:21;;;;;;;9.40;8.60;;;21.10;99.90;;;;;;5104627;28;20035;-35
2022/07/21 04:37:47;;;;;;;12.00;10.82;;;21.10;99.90;;;;;;5105799;28;20016;-35
2022/07/21 04:40:13;;;;;;;11.85;10.60;;;21.10;99.90;;;;;;5105147;28;20031;-36
2022/07/21 04:42:39;;;;;;;11.55;10.23;;;21.00;99.90;;;;;;5104881;28;20046;-35
2022/07/21 04:45:07;;;;;;;10.63;9.55;;;21.00;99.90;;;;;;5105601;28;20055;-37
2022/07/21 04:47:32;;;;;;;11.70;10.60;;;21.00;99.90;;;;;;5105597;28;21042;-35
2022/07/21 04:49:58;;;;;;;10.18;9.13;;;21.00;99.90;;;;;;5104457;28;20471;-35
2022/07/21 04:52:23;;;;;;;13.27;10.90;;;21.00;99.90;;;;;;5104643;28;20036;-35
2022/07/21 04:54:50;;;;;;;11.63;10.43;;;21.00;99.90;;;;;;5104964;28;20092;-35
2022/07/21 04:57:15;;;;;;;14.07;12.30;;;21.10;99.90;;;;;;5103844;28;20109;-35
2022/07/21 04:59:41;;;;;;;10.52;9.55;;;21.10;99.90;;;;;;5104436;28;20461;-34
2022/07/21 05:02:07;;;;;;;10.18;9.27;;;21.10;99.90;;;;;;5105196;28;20468;-34
2022/07/21 05:04:32;;;;;;;11.20;10.10;;;21.10;99.90;;;;;;5103337;28;20047;-34
2022/07/21 05:06:58;;;;;;;9.95;8.95;;;21.10;99.90;;;;;;5108418;28;20027;-35
2022/07/21 05:09:23;;;;;;;12.02;10.63;;;21.00;99.90;;;;;;5108919;28;20026;-35
2022/07/21 05:11:49;;;;;;;10.40;9.45;;;21.00;99.90;;;;;;5108988;28;20454;-34
2022/07/21 05:14:15;;;;;;;12.48;11.18;;;21.00;99.90;;;;;;5108661;28;20538;-34
2022/07/21 05:16:41;;;;;;;14.70;12.50;;;21.00;99.90;;;;;;5109239;28;20031;-34
2022/07/21 05:19:06;;;;;;;12.85;11.55;;;21.00;99.90;;;;;;5108628;28;20118;-34
2022/07/21 05:21:32;;;;;;;13.80;12.45;;;21.00;99.90;;;;;;5107697;28;20164;-35
2022/07/21 05:23:57;;;;;;;16.40;14.70;;;21.00;99.90;;;;;;5109133;28;20128;-35
2022/07/21 05:26:23;;;;;;;13.80;12.40;;;21.00;99.90;;;;;;5107714;28;20059;-37
2022/07/21 05:28:49;;;;;;;13.13;11.73;;;21.00;99.90;;;;;;5108964;28;20027;-35
2022/07/21 05:31:14;;;;;;;13.70;12.23;;;21.00;99.90;;;;;;5108226;28;20501;-34
2022/07/21 05:33:40;;;;;;;15.95;14.18;;;21.00;99.90;;;;;;5107953;28;20149;-35
2022/07/21 05:36:06;;;;;;;14.75;13.02;;;21.00;99.90;;;;;;5108638;28;20065;-36
2022/07/21 05:38:32;;;;;;;15.88;14.18;;;21.00;99.90;;;;;;5108020;28;20020;-36
2022/07/21 05:40:59;;;;;;;15.43;13.82;;;21.00;99.90;;;;;;5107881;28;20031;-35
2022/07/21 05:43:26;;;;;;;12.73;11.50;;;21.00;99.90;;;;;;5108394;28;20027;-34
2022/07/21 05:45:52;;;;;;;12.43;10.80;;;21.00;99.90;;;;;;5107767;28;20561;-35
2022/07/21 05:48:18;;;;;;;13.60;12.32;;;21.00;99.90;;;;;;5107973;28;20094;-35
2022/07/21 05:50:43;;;;;;;15.32;13.63;;;20.90;99.90;;;;;;5108739;28;20688;-35
2022/07/21 05:53:09;;;;;;;15.95;14.35;;;21.00;99.90;;;;;;5107585;28;20483;-36
2022/07/21 05:55:34;;;;;;;16.40;14.60;;;21.00;99.90;;;;;;5107816;28;20164;-37
2022/07/21 05:58:00;;;;;;;16.95;15.15;;;21.00;99.90;;;;;;5108596;28;20107;-35
2022/07/21 06:00:25;;;;;;;20.23;16.92;;;21.00;99.90;;;;;;5106969;28;20039;-36
2022/07/21 06:02:51;;;;;;;17.00;14.98;;;20.90;99.90;;;;;;5107910;28;20499;-34
2022/07/21 06:05:16;;;;;;;14.43;12.98;;;20.90;99.90;;;;;;5108379;28;20035;-34
2022/07/21 06:07:42;;;;;;;15.68;13.82;;;20.90;99.90;;;;;;5106928;28;20042;-34
2022/07/21 06:10:08;;;;;;;15.60;14.10;;;21.00;99.90;;;;;;5087538;28;20110;-34
2022/07/21 06:12:34;;;;;;;14.20;12.80;;;21.00;99.90;;;;;;5101561;28;20556;-35
2022/07/21 06:14:59;;;;;;;12.70;11.38;;;21.00;99.90;;;;;;5107505;28;20024;-35
2022/07/21 06:17:25;;;;;;;18.60;14.43;;;21.00;99.90;;;;;;5107270;28;20019;-34
2022/07/21 06:19:50;;;;;;;14.07;12.68;;;21.10;99.90;;;;;;5108668;28;20508;-34
2022/07/21 06:22:16;;;;;;;13.43;11.95;;;21.00;99.90;;;;;;5106542;28;20554;-34
2022/07/21 06:24:42;;;;;;;13.60;12.13;;;21.00;99.90;;;;;;5107515;28;20357;-34
2022/07/21 06:27:08;;;;;;;13.52;12.13;;;21.00;99.90;;;;;;5108314;28;20032;-34
2022/07/21 06:29:33;;;;;;;16.10;13.18;;;21.00;99.90;;;;;;5106523;28;20103;-34
2022/07/21 06:31:59;;;;;;;12.80;11.50;;;21.10;99.90;;;;;;5107698;28;20012;-34
2022/07/21 06:34:24;;;;;;;12.05;10.80;;;21.10;99.90;;;;;;5106928;28;20016;-35
2022/07/21 06:36:50;;;;;;;15.23;13.20;;;21.20;99.90;;;;;;5106400;28;20521;-34
2022/07/21 06:39:15;;;;;;;17.08;13.68;;;21.20;99.90;;;;;;5107128;28;20026;-36
2022/07/21 06:41:41;;;;;;;15.68;14.07;;;21.30;99.90;;;;;;5107414;28;20452;-35
2022/07/21 06:44:07;;;;;;;14.32;12.85;;;21.30;99.90;;;;;;5106237;28;20019;-35
2022/07/21 06:46:34;;;;;;;12.48;11.18;;;21.40;99.90;;;;;;5106828;28;20031;-35
2022/07/21 06:49:00;;;;;;;11.15;10.00;;;21.40;99.90;;;;;;5106677;28;20463;-35
2022/07/21 06:51:25;;;;;;;12.75;11.40;;;21.50;99.90;;;;;;5106586;28;20085;-34
2022/07/21 06:53:51;;;;;;;10.90;9.90;;;21.60;99.90;;;;;;5107574;28;20089;-34
2022/07/21 06:56:18;;;;;;;11.75;10.65;;;21.60;99.90;;;;;;5106261;28;20030;-36
2022/07/21 06:58:43;;;;;;;13.18;10.48;;;21.70;99.90;;;;;;5106146;28;20535;-35
2022/07/21 07:01:09;;;;;;;10.77;9.70;;;21.80;99.90;;;;;;5107148;28;20107;-34
2022/07/21 07:03:36;;;;;;;13.27;11.80;;;21.90;99.90;;;;;;5105805;28;20043;-34
2022/07/21 07:06:01;;;;;;;13.35;11.95;;;21.90;99.90;;;;;;5107011;28;20024;-34
2022/07/21 07:08:27;;;;;;;15.38;13.77;;;21.80;99.90;;;;;;5106053;28;20357;-35
2022/07/21 07:10:52;;;;;;;15.60;13.45;;;21.80;99.90;;;;;;5106220;28;20031;-34
2022/07/21 07:13:18;;;;;;;13.98;12.57;;;21.80;99.90;;;;;;5106197;28;20023;-37
2022/07/21 07:15:44;;;;;;;13.57;12.02;;;21.80;99.90;;;;;;5107253;28;20475;-36
2022/07/21 07:18:10;;;;;;;14.50;13.10;;;21.80;99.90;;;;;;5106180;28;20031;-34
2022/07/21 07:20:36;;;;;;;14.55;13.02;;;21.80;99.90;;;;;;5105509;28;20036;-35
2022/07/21 07:23:01;;;;;;;11.95;10.68;;;21.80;99.90;;;;;;5107053;28;20140;-34
2022/07/21 07:25:27;;;;;;;11.88;10.73;;;21.80;99.90;;;;;;5104884;28;20510;-34
2022/07/21 07:27:55;;;;;;;12.23;10.93;;;21.80;99.90;;;;;;5106341;28;20032;-34
2022/07/21 07:30:20;;;;;;;15.25;12.32;;;21.80;99.90;;;;;;5107032;28;20040;-35
2022/07/21 07:32:47;;;;;;;12.63;11.32;;;21.80;99.90;;;;;;5106003;28;20494;-35
2022/07/21 07:35:13;;;;;;;13.25;11.85;;;21.80;99.90;;;;;;5106207;28;20409;-34
2022/07/21 07:37:40;;;;;;;14.00;12.60;;;21.90;99.90;;;;;;5106398;28;20034;-34
2022/07/21 07:40:09;;;;;;;13.60;12.20;;;21.90;99.90;;;;;;5105304;28;20115;-35
2022/07/21 07:42:36;;;;;;;17.52;13.25;;;21.90;99.90;;;;;;5106587;28;20391;-34
2022/07/21 07:45:04;;;;;;;12.48;10.77;;;22.00;99.90;;;;;;5106599;28;20011;-34
2022/07/21 07:47:30;;;;;;;15.13;11.65;;;22.00;99.90;;;;;;5105313;28;20028;-34
2022/07/21 07:49:55;;;;;;;14.23;10.80;;;22.00;99.90;;;;;;5106048;28;20016;-35
2022/07/21 07:52:21;;;;;;;12.52;10.18;;;22.00;99.90;;;;;;5104753;28;20486;-35
2022/07/21 07:54:47;;;;;;;13.98;12.35;;;22.00;99.90;;;;;;5105608;28;20348;-35
2022/07/21 07:57:12;;;;;;;12.20;10.90;;;22.00;99.90;;;;;;5105878;28;20038;-33
2022/07/21 07:59:38;;;;;;;13.30;11.25;;;22.10;99.90;;;;;;5104575;28;20031;-34
2022/07/21 08:02:03;;;;;;;14.30;12.80;;;22.10;99.90;;;;;;5106532;28;20406;-34
2022/07/21 08:04:29;;;;;;;18.65;14.77;;;22.10;99.90;;;;;;5105694;28;20387;-35
2022/07/21 08:06:55;;;;;;;15.27;12.85;;;22.10;99.90;;;;;;5104959;28;20467;-35
2022/07/21 08:09:20;;;;;;;17.75;14.82;;;22.10;99.90;;;;;;5106019;28;20483;-34
2022/07/21 08:11:47;;;;;;;17.77;15.10;;;22.10;99.90;;;;;;5105109;28;20058;-35
2022/07/21 08:14:13;;;;;;;16.35;13.88;;;22.10;99.90;;;;;;5104918;28;20521;-35
2022/07/21 08:16:39;;;;;;;20.90;16.52;;;22.20;99.90;;;;;;5105930;28;20032;-34
2022/07/21 08:19:05;;;;;;;15.60;13.90;;;22.20;99.90;;;;;;5106065;28;20364;-35
2022/07/21 08:21:32;;;;;;;16.30;13.73;;;22.30;99.90;;;;;;5103997;28;20044;-35
2022/07/21 08:23:57;;;;;;;14.75;12.82;;;22.30;99.90;;;;;;5105274;28;20636;-35
2022/07/21 08:26:24;;;;;;;14.95;13.38;;;22.30;99.90;;;;;;5105268;28;20051;-35
2022/07/21 08:28:50;;;;;;;14.48;12.98;;;22.30;99.90;;;;;;5105177;28;20024;-35
2022/07/21 08:31:16;;;;;;;14.48;11.95;;;22.30;99.90;;;;;;5105418;28;20416;-35
2022/07/21 08:33:41;;;;;;;15.43;13.13;;;22.40;99.90;;;;;;5105576;28;20120;-35
2022/07/21 08:36:07;;;;;;;13.23;11.32;;;22.40;99.90;;;;;;5104319;28;20383;-35
2022/07/21 08:38:32;;;;;;;17.25;13.85;;;22.40;99.90;;;;;;5104670;28;20532;-35
2022/07/21 08:40:58;;;;;;;15.15;13.45;;;22.30;99.90;;;;;;5105027;28;20067;-35
2022/07/21 08:43:24;;;;;;;14.30;12.32;;;22.30;99.90;;;;;;5104334;28;20331;-36
2022/07/21 08:45:50;;;;;;;17.23;13.50;;;22.20;99.90;;;;;;5105426;28;20431;-35
2022/07/21 08:48:19;;;;;;;17.80;12.43;;;22.20;99.90;;;;;;5104662;28;20034;-35
2022/07/21 08:50:44;;;;;;;13.25;10.90;;;22.20;99.90;;;;;;5104374;28;20531;-35
2022/07/21 08:53:10;;;;;;;13.07;10.27;;;22.20;99.90;;;;;;5105053;28;20039;-35
2022/07/21 08:55:40;;;;;;;10.82;9.68;;;22.20;99.90;;;;;;5104690;28;21047;-34
2022/07/21 08:58:08;;;;;;;12.02;10.38;;;22.20;99.90;;;;;;5105012;28;20497;-35
2022/07/21 09:00:36;;;;;;;13.38;11.93;;;22.10;99.90;;;;;;5104094;28;20592;-34
2022/07/21 09:03:15;;;;;;;13.27;10.93;;;22.10;99.90;;;;;;5104129;28;20108;-34
2022/07/21 09:05:42;;;;;;;14.82;13.23;;;22.00;99.90;;;;;;5105080;28;20353;-36
2022/07/21 09:08:08;;;;;;;15.30;12.75;;;21.90;99.90;;;;;;5105174;28;20064;-35
2022/07/21 09:10:34;;;;;;;18.33;14.23;;;21.90;99.90;;;;;;5103472;28;20028;-34
2022/07/21 09:13:03;;;;;;;14.95;12.68;;;21.80;99.90;;;;;;5105127;28;20114;-34
2022/07/21 09:15:31;;;;;;;20.77;15.43;;;21.80;99.90;;;;;;5104014;28;20035;-35
2022/07/21 09:18:23;;;;;;;18.17;14.98;;;21.70;99.90;;;;;;5104091;28;20019;-34
2022/07/21 09:20:53;;;;;;;17.38;14.65;;;21.60;99.90;;;;;;5100442;28;20138;-35
2022/07/21 09:23:23;;;;;;;15.65;13.30;;;21.50;99.90;;;;;;5104250;28;20024;-35
2022/07/21 09:25:51;;;;;;;14.88;12.50;;;21.40;99.90;;;;;;5104338;28;20028;-35
2022/07/21 09:28:26;;;;;;;16.80;13.85;;;21.30;99.90;;;;;;5104331;28;20031;-35
2022/07/21 09:31:00;;;;;;;15.45;11.27;;;21.30;99.90;;;;;;5104074;28;20057;-35
2022/07/21 09:33:45;;;;;;;10.02;9.02;;;21.20;99.90;;;;;;5104277;28;20461;-35
2022/07/21 09:36:17;;;;;;;12.68;9.52;;;21.20;99.90;;;;;;5105113;28;20421;-36
2022/07/21 09:38:51;;;;;;;11.38;9.65;;;21.10;99.90;;;;;;5103552;28;20024;-36
2022/07/21 09:41:19;;;;;;;10.65;8.88;;;21.10;99.90;;;;;;5104724;28;20036;-35
2022/07/21 09:43:50;;;;;;;8.07;7.28;;;21.00;99.90;;;;;;5104540;28;20367;-36
2022/07/21 09:46:24;;;;;;;7.18;6.13;;;21.00;99.90;;;;;;5103884;28;20063;-36
2022/07/21 09:48:52;;;;;;;8.02;6.85;;;21.00;99.90;;;;;;5104104;28;20558;-35
2022/07/21 09:51:25;;;;;;;8.63;7.40;;;20.90;99.90;;;;;;5105210;28;20020;-36
2022/07/21 09:54:01;;;;;;;6.30;5.70;;;20.90;99.90;;;;;;5107446;28;20483;-35
2022/07/21 09:56:29;;;;;;;6.32;5.47;;;20.90;99.90;;;;;;5096942;28;20031;-35
2022/07/21 09:58:57;;;;;;;5.68;5.18;;;20.90;99.90;;;;;;5107914;28;20023;-36
2022/07/21 10:01:24;;;;;;;4.93;4.53;;;20.90;99.90;;;;;;5107513;28;20050;-36
2022/07/21 10:03:51;;;;;;;7.22;5.50;;;20.90;99.90;;;;;;5108265;28;20158;-35
2022/07/21 10:06:22;;;;;;;6.18;5.45;;;20.90;99.90;;;;;;5103659;28;20062;-35
2022/07/21 10:08:48;;;;;;;5.78;5.18;;;20.90;99.90;;;;;;5108334;28;20034;-35
2022/07/21 10:11:14;;;;;;;6.82;5.90;;;20.80;99.90;;;;;;5107656;28;20077;-36
2022/07/21 10:13:40;;;;;;;5.70;4.65;;;20.80;99.90;;;;;;5106891;28;20495;-35
2022/07/21 10:16:11;;;;;;;5.60;5.10;;;20.70;99.90;;;;;;5107800;28;20110;-34
2022/07/21 10:18:49;;;;;;;4.95;4.55;;;20.70;99.90;;;;;;5107288;28;20121;-35
2022/07/21 10:21:39;;;;;;;5.75;4.38;;;20.70;99.90;;;;;;5107062;28;20501;-37
2022/07/21 10:24:05;;;;;;;4.90;4.45;;;20.60;99.90;;;;;;5108359;28;20036;-35
2022/07/21 10:26:30;;;;;;;5.50;5.00;;;20.60;99.90;;;;;;5106427;28;20035;-35
2022/07/21 10:28:56;;;;;;;3.97;3.67;;;20.60;99.90;;;;;;5107177;28;20024;-35
2022/07/21 10:31:25;;;;;;;4.20;3.80;;;20.60;99.90;;;;;;5107272;28;20398;-35
2022/07/21 10:33:52;;;;;;;6.57;5.93;;;20.60;99.90;;;;;;5107706;28;20101;-37
2022/07/21 10:36:27;;;;;;;5.00;4.50;;;20.70;99.90;;;;;;5106072;28;20032;-36
2022/07/21 10:39:10;;;;;;;4.43;4.03;;;20.60;99.90;;;;;;5107552;28;20012;-35
2022/07/21 10:41:40;;;;;;;4.13;3.75;;;20.60;99.90;;;;;;5105714;28;20060;-34
2022/07/21 10:44:28;;;;;;;4.50;4.10;;;20.70;99.90;;;;;;5108008;28;20080;-36
2022/07/21 10:47:10;;;;;;;5.20;4.70;;;20.60;99.90;;;;;;5107240;28;20027;-34
2022/07/21 10:49:49;;;;;;;3.88;3.50;;;20.70;99.90;;;;;;5085778;28;20020;-34
2022/07/21 10:52:41;;;;;;;3.95;3.65;;;20.70;99.90;;;;;;5103689;28;20038;-37
2022/07/21 10:55:10;;;;;;;5.80;5.30;;;20.80;99.90;;;;;;5107014;28;20062;-37
2022/07/21 10:58:13;;;;;;;4.55;4.10;;;20.80;99.90;;;;;;5106294;28;20474;-34
2022/07/21 11:00:45;;;;;;;4.47;4.07;;;20.80;99.90;;;;;;5069355;28;20075;-35
2022/07/21 11:03:20;;;;;;;4.40;4.03;;;20.80;99.90;;;;;;5105208;28;20364;-35
2022/07/21 11:06:23;;;;;;;4.25;3.95;;;20.80;99.90;;;;;;5107053;28;20031;-35
2022/07/21 11:08:51;;;;;;;3.47;3.17;;;20.80;99.90;;;;;;5004070;28;20096;-35
2022/07/21 11:11:23;;;;;;;4.03;3.17;;;20.80;99.90;;;;;;5087500;28;20035;-35
2022/07/21 11:14:04;;;;;;;3.30;3.00;;;20.70;99.90;;;;;;5106714;28;20027;-36
2022/07/21 11:16:54;;;;;;;2.70;2.50;;;20.70;99.90;;;;;;5105080;28;20526;-35
2022/07/21 11:19:52;;;;;;;2.72;2.53;;;20.70;99.90;;;;;;5096497;28;20720;-35
2022/07/21 11:22:29;;;;;;;4.13;2.72;;;20.70;99.90;;;;;;5106646;28;20134;-35
2022/07/21 11:25:06;;;;;;;2.33;2.08;;;20.70;99.90;;;;;;5106473;28;20051;-34
2022/07/21 11:27:34;;;;;;;3.45;2.65;;;20.70;99.90;;;;;;5105473;28;20085;-35
2022/07/21 11:30:04;;;;;;;3.05;2.67;;;20.70;99.90;;;;;;5106661;28;20058;-35
2022/07/21 11:32:29;;;;;;;2.70;2.45;;;20.70;99.90;;;;;;5105321;28;20027;-35
2022/07/21 11:34:58;;;;;;;2.60;2.40;;;20.80;99.90;;;;;;5106448;28;20084;-36
2022/07/21 11:37:31;;;;;;;3.13;2.92;;;20.80;99.90;;;;;;5105195;28;20027;-35
2022/07/21 11:39:56;;;;;;;3.30;3.00;;;20.90;99.90;;;;;;5095959;28;20042;-34
2022/07/21 11:42:23;;;;;;;3.10;2.80;;;21.00;99.90;;;;;;5105693;28;20389;-34
2022/07/21 11:44:49;;;;;;;2.83;2.60;;;21.00;99.90;;;;;;5105135;28;20055;-35
2022/07/21 11:47:15;;;;;;;3.60;3.30;;;21.10;99.90;;;;;;5106267;28;20054;-35
2022/07/21 11:49:44;;;;;;;3.60;3.30;;;21.10;99.90;;;;;;5105698;28;20458;-33
2022/07/21 11:52:13;;;;;;;4.00;3.70;;;21.10;99.90;;;;;;5105206;28;20059;-34
2022/07/21 11:54:52;;;;;;;5.38;4.43;;;21.00;99.90;;;;;;5105699;28;20111;-35
2022/07/21 11:57:20;;;;;;;5.03;4.63;;;20.90;99.90;;;;;;5106040;28;20054;-36
2022/07/21 11:59:47;;;;;;;7.28;6.53;;;20.80;99.90;;;;;;5104347;28;20554;-36
2022/07/21 12:02:33;;;;;;;7.22;6.32;;;20.80;99.90;;;;;;5105839;28;20038;-35
2022/07/21 12:05:05;;;;;;;6.60;6.00;;;20.70;99.90;;;;;;5105324;28;20020;-36
2022/07/21 12:07:42;;;;;;;6.47;5.78;;;20.70;99.90;;;;;;5104651;28;20035;-36
2022/07/21 12:10:10;;;;;;;6.95;6.10;;;20.70;99.90;;;;;;5106020;28;20054;-35
2022/07/21 12:12:38;;;;;;;9.27;6.30;;;20.70;99.90;;;;;;5104309;28;20028;-35
2022/07/21 12:15:15;;;;;;;6.13;5.63;;;20.70;99.90;;;;;;5105267;28;20413;-35
2022/07/21 12:17:44;;;;;;;6.65;5.90;;;20.80;99.90;;;;;;5105901;28;20362;-35
2022/07/21 12:20:10;;;;;;;6.63;6.03;;;20.80;99.90;;;;;;5104482;28;20058;-35
2022/07/21 12:22:43;;;;;;;7.05;6.00;;;20.70;99.90;;;;;;5105414;28;20055;-40
2022/07/21 12:25:10;;;;;;;6.70;6.10;;;20.70;99.90;;;;;;5105531;28;20316;-35
2022/07/21 12:27:39;;;;;;;5.88;5.38;;;20.70;99.90;;;;;;5104050;28;20054;-35
2022/07/21 12:30:07;;;;;;;6.10;5.50;;;20.70;99.90;;;;;;5105041;28;20119;-36
2022/07/21 12:32:47;;;;;;;6.60;6.00;;;20.70;99.90;;;;;;5104581;28;20034;-35
2022/07/21 12:35:17;;;;;;;5.75;5.25;;;20.80;99.90;;;;;;5105111;28;20019;-36
2022/07/21 12:38:00;;;;;;;4.93;4.53;;;20.80;99.90;;;;;;5105161;28;20216;-36
2022/07/21 12:40:29;;;;;;;4.97;4.40;;;20.90;99.90;;;;;;5104334;28;20372;-36
2022/07/21 12:43:18;;;;;;;6.15;4.28;;;20.90;99.90;;;;;;5105218;28;20020;-36
2022/07/21 12:45:48;;;;;;;6.28;5.68;;;20.90;99.90;;;;;;5105580;28;20016;-36